Time;durP1;ratioP1;P1;durP2;ratioP2;P2;SDS_P1;SDS_P2;PMS_P1;PMS_P2;Temp;Humidity;BMP_temperature;BMP_pressure;BME280_temperature;BME280_humidity;BME280_pressure;Samples;Min_cycle;Max_cycle;Signal;HPM_P1;HPM_P2
2022/07/22 00:01:38;;;;;;;4.80;2.70;;;;;;;18.38;79.84;98096.69;1772958;78;21818;-67
2022/07/22 00:04:04;;;;;;;3.22;2.65;;;;;;;18.37;80.15;98097.83;1783589;77;20860;-67
2022/07/22 00:11:41;;;;;;;5.15;2.75;;;;;;;18.28;80.73;98105.25;1782314;79;21069;-66
2022/07/22 00:14:09;;;;;;;6.20;3.00;;;;;;;18.27;80.93;98108.55;1772568;80;21109;-67
2022/07/22 00:16:36;;;;;;;6.65;3.25;;;;;;;18.27;81.09;98106.41;1770895;80;21573;-66
2022/07/22 00:19:02;;;;;;;5.12;3.40;;;;;;;18.26;81.20;98104.80;1773387;80;20986;-66
2022/07/22 00:21:28;;;;;;;6.37;2.90;;;;;;;18.27;81.21;98109.11;1770754;80;20967;-66
2022/07/22 00:23:56;;;;;;;7.97;2.60;;;;;;;18.30;81.18;98108.45;1752170;80;20900;-66
2022/07/22 00:26:23;;;;;;;8.20;2.87;;;;;;;18.26;81.17;98105.60;1775542;80;21192;-67
2022/07/22 00:28:49;;;;;;;3.65;2.55;;;;;;;18.26;81.26;98112.94;1779680;80;21422;-66
2022/07/22 00:31:16;;;;;;;8.05;2.70;;;;;;;18.23;81.41;98110.92;1774673;80;20972;-67
2022/07/22 00:33:42;;;;;;;5.65;2.77;;;;;;;18.21;81.53;98106.38;1740006;81;21067;-66
2022/07/22 00:36:09;;;;;;;4.05;3.00;;;;;;;18.19;81.71;98104.57;1751046;80;21027;-67
2022/07/22 00:38:36;;;;;;;4.17;2.77;;;;;;;18.18;81.89;98105.72;1777923;80;21205;-66
2022/07/22 00:41:03;;;;;;;8.63;3.10;;;;;;;18.15;82.03;98106.38;1774820;80;20972;-67
2022/07/22 00:43:54;;;;;;;5.22;2.60;;;;;;;18.11;82.14;98105.48;1779651;80;20867;-66
2022/07/22 00:46:21;;;;;;;8.30;2.80;;;;;;;18.08;82.35;98108.84;1790845;78;20959;-67
2022/07/22 00:48:47;;;;;;;3.60;2.83;;;;;;;18.07;82.59;98104.55;1794624;77;20853;-67
2022/07/22 00:51:14;;;;;;;5.20;2.65;;;;;;;18.06;82.70;98111.91;1796598;78;21205;-66
2022/07/22 00:53:41;;;;;;;7.85;3.10;;;;;;;18.06;82.76;98107.05;1776549;78;20863;-67
2022/07/22 00:56:07;;;;;;;4.87;3.00;;;;;;;18.04;82.82;98103.30;1797689;78;20899;-66
2022/07/22 00:58:35;;;;;;;6.85;2.67;;;;;;;18.02;82.96;98107.47;1788774;78;21477;-67
2022/07/22 01:01:02;;;;;;;9.00;3.20;;;;;;;17.99;83.11;98103.53;1790442;78;20849;-67
2022/07/22 01:03:30;;;;;;;5.10;3.12;;;;;;;17.98;83.23;98111.98;1771962;79;21097;-67
2022/07/22 01:05:56;;;;;;;7.90;3.37;;;;;;;17.96;83.33;98110.17;1785328;79;20954;-67
2022/07/22 01:08:24;;;;;;;4.25;2.90;;;;;;;17.92;83.36;98104.65;1782688;79;20934;-67
2022/07/22 01:10:52;;;;;;;3.60;2.70;;;;;;;17.89;83.37;98103.16;1783109;79;21451;-66
2022/07/22 01:13:18;;;;;;;3.65;2.70;;;;;;;17.87;83.59;98108.12;1782176;79;20979;-66
2022/07/22 01:15:46;;;;;;;6.53;2.60;;;;;;;17.84;83.81;98100.66;1778247;79;21951;-66
2022/07/22 01:18:12;;;;;;;5.97;2.90;;;;;;;17.81;83.68;98106.17;1783711;79;20950;-67
2022/07/22 01:20:39;;;;;;;7.40;2.80;;;;;;;17.78;83.52;98102.00;1790042;78;21477;-66
2022/07/22 01:23:07;;;;;;;4.85;2.62;;;;;;;17.71;83.30;98100.61;1771049;78;21389;-67
2022/07/22 01:25:34;;;;;;;3.77;2.65;;;;;;;17.66;83.07;98100.05;1798560;78;21406;-67
2022/07/22 01:28:00;;;;;;;6.28;2.90;;;;;;;17.60;82.54;98101.36;1806313;78;21422;-67
2022/07/22 01:30:27;;;;;;;4.37;3.15;;;;;;;17.54;82.43;98101.34;1793892;78;20927;-66
2022/07/22 01:32:54;;;;;;;7.00;3.22;;;;;;;17.49;82.98;98102.31;1795072;78;20958;-66
2022/07/22 01:35:21;;;;;;;3.75;3.00;;;;;;;17.43;82.42;98101.50;1790285;78;20896;-67
2022/07/22 01:37:48;;;;;;;4.80;2.83;;;;;;;17.35;82.31;98099.65;1795808;78;20956;-67
2022/07/22 01:40:15;;;;;;;6.08;3.05;;;;;;;17.29;82.45;98101.75;1792624;78;21154;-67
2022/07/22 01:42:41;;;;;;;7.30;3.17;;;;;;;17.22;82.37;98100.72;1790967;78;20983;-66
2022/07/22 01:45:10;;;;;;;5.20;2.83;;;;;;;17.12;82.25;98107.32;1788840;78;21503;-66
2022/07/22 01:47:38;;;;;;;4.75;2.75;;;;;;;17.01;82.18;98102.05;1808048;78;20959;-66
2022/07/22 01:50:07;;;;;;;5.17;3.33;;;;;;;16.91;82.60;98103.22;1784058;79;20931;-67
2022/07/22 01:52:33;;;;;;;7.08;2.80;;;;;;;16.84;82.91;98102.18;1790641;78;21175;-67
2022/07/22 01:55:02;;;;;;;5.92;2.98;;;;;;;16.81;83.21;98104.17;1783933;78;20918;-66
2022/07/22 01:57:29;;;;;;;6.17;2.83;;;;;;;16.80;83.32;98110.70;1784871;79;20915;-66
2022/07/22 01:59:55;;;;;;;4.08;2.60;;;;;;;16.76;83.40;98105.16;1774010;79;21493;-66
2022/07/22 02:02:23;;;;;;;3.67;2.50;;;;;;;16.73;83.53;98113.13;1782783;79;22349;-66
2022/07/22 02:04:49;;;;;;;4.78;2.87;;;;;;;16.71;84.07;98111.31;1774099;78;21106;-66
2022/07/22 02:07:16;;;;;;;2.95;2.20;;;;;;;16.75;84.76;98117.64;1787808;78;21037;-66
2022/07/22 02:09:43;;;;;;;4.62;2.90;;;;;;;16.74;84.86;98113.37;1790087;78;20955;-66
2022/07/22 02:12:09;;;;;;;7.53;2.90;;;;;;;16.70;84.63;98109.73;1788241;78;21462;-66
2022/07/22 02:14:38;;;;;;;4.50;2.85;;;;;;;16.68;84.40;98108.70;1790834;79;20918;-66
2022/07/22 02:17:05;;;;;;;6.65;2.75;;;;;;;16.63;84.29;98116.22;1791530;78;21093;-66
2022/07/22 02:19:33;;;;;;;6.80;3.08;;;;;;;16.58;84.31;98115.81;1768912;80;20943;-66
2022/07/22 02:21:59;;;;;;;7.08;3.00;;;;;;;16.53;84.45;98120.64;1767392;80;20892;-66
2022/07/22 02:24:27;;;;;;;5.10;2.67;;;;;;;16.49;84.59;98115.62;1780850;79;20941;-67
2022/07/22 02:26:54;;;;;;;4.12;2.70;;;;;;;16.43;84.64;98119.86;1771252;78;20896;-65
2022/07/22 02:29:20;;;;;;;6.60;2.98;;;;;;;16.36;84.79;98119.56;1772869;79;22005;-65
2022/07/22 02:31:49;;;;;;;6.80;2.98;;;;;;;16.32;85.02;98112.44;1791576;77;21002;-66
2022/07/22 02:34:15;;;;;;;5.97;3.27;;;;;;;16.29;85.16;98115.22;1789565;77;21781;-66
2022/07/22 02:36:42;;;;;;;6.45;3.10;;;;;;;16.25;85.42;98118.90;1788898;78;21026;-66
2022/07/22 02:39:10;;;;;;;4.08;2.70;;;;;;;16.22;85.59;98115.48;1786062;78;21671;-66
2022/07/22 02:41:37;;;;;;;7.40;3.08;;;;;;;16.20;85.82;98110.97;1794204;77;21092;-66
2022/07/22 02:44:04;;;;;;;4.35;2.85;;;;;;;16.19;86.09;98113.41;1793890;78;20954;-66
2022/07/22 02:46:31;;;;;;;5.85;3.10;;;;;;;16.18;86.22;98115.32;1778034;79;20890;-66
2022/07/22 02:49:00;;;;;;;5.08;3.25;;;;;;;16.16;86.43;98118.91;1793990;78;20941;-66
2022/07/22 02:51:28;;;;;;;4.85;2.85;;;;;;;16.12;86.56;98116.63;1788142;78;20983;-66
2022/07/22 02:53:55;;;;;;;4.97;2.80;;;;;;;16.10;86.73;98117.51;1790047;78;21135;-67
2022/07/22 02:56:21;;;;;;;4.35;3.10;;;;;;;16.08;86.84;98117.59;1784788;79;20968;-66
2022/07/22 02:58:51;;;;;;;6.97;2.98;;;;;;;16.04;86.99;98116.08;1777605;78;20947;-66
2022/07/22 03:01:17;;;;;;;5.35;3.33;;;;;;;16.03;87.05;98119.91;1766987;78;20999;-66
2022/07/22 03:03:45;;;;;;;7.78;3.22;;;;;;;16.02;87.10;98122.37;1782821;78;21025;-66
2022/07/22 03:06:13;;;;;;;3.40;2.80;;;;;;;16.01;87.07;98122.15;1791883;78;21103;-66
2022/07/22 03:08:45;;;;;;;4.25;2.62;;;;;;;15.98;87.13;98133.59;1789471;78;20978;-66
2022/07/22 03:11:12;;;;;;;4.47;2.80;;;;;;;15.97;87.32;98126.59;1795491;78;20927;-67
2022/07/22 03:13:39;;;;;;;6.05;2.98;;;;;;;15.96;87.52;98127.72;1794674;78;20869;-66
2022/07/22 03:16:05;;;;;;;4.33;2.77;;;;;;;15.99;87.71;98127.64;1786733;78;21592;-66
2022/07/22 03:18:32;;;;;;;4.90;3.17;;;;;;;16.02;87.84;98126.97;1791323;78;21093;-67
2022/07/22 03:21:00;;;;;;;4.95;2.85;;;;;;;16.05;87.87;98127.14;1774713;78;21411;-66
2022/07/22 03:23:26;;;;;;;5.25;3.00;;;;;;;16.09;87.86;98124.02;1799284;79;21050;-66
2022/07/22 03:25:55;;;;;;;5.67;3.05;;;;;;;16.12;88.02;98119.33;1784965;78;21443;-66
2022/07/22 03:28:22;;;;;;;5.22;3.62;;;;;;;16.18;88.08;98119.37;1761505;78;20994;-67
2022/07/22 03:30:49;;;;;;;6.47;3.35;;;;;;;16.23;88.14;98121.91;1809915;78;21193;-67
2022/07/22 03:33:16;;;;;;;4.58;3.35;;;;;;;16.27;88.18;98110.67;1796654;78;20923;-67
2022/07/22 03:35:43;;;;;;;5.30;3.30;;;;;;;16.35;88.29;98113.11;1806401;78;20938;-67
2022/07/22 03:44:18;;;;;;;8.98;3.58;;;;;;;16.55;88.08;98117.84;1890573;76;22141;-65
2022/07/22 03:46:45;;;;;;;19.75;4.17;;;;;;;16.55;88.05;98113.78;1861662;77;20907;-66
2022/07/22 03:49:12;;;;;;;16.60;4.10;;;;;;;16.58;87.63;98116.40;1861529;77;21114;-66
2022/07/22 03:51:38;;;;;;;10.95;3.50;;;;;;;16.58;87.11;98112.34;1861572;77;20887;-65
2022/07/22 03:54:05;;;;;;;12.68;3.80;;;;;;;16.55;86.83;98111.63;1856332;77;20907;-66
2022/07/22 03:56:32;;;;;;;13.68;4.25;;;;;;;16.54;86.82;98119.50;1861489;77;20962;-66
2022/07/22 03:58:59;;;;;;;15.68;4.08;;;;;;;16.55;86.83;98119.75;1861526;77;21001;-66
2022/07/22 04:03:55;;;;;;;12.23;4.05;;;;;;;16.68;86.99;98120.06;1890967;76;23780;-66
2022/07/22 04:06:30;;;;;;;14.60;4.12;;;;;;;16.69;87.03;98117.61;1861384;77;21453;-66
2022/07/22 04:08:59;;;;;;;15.43;4.33;;;;;;;16.77;87.19;98116.20;1861486;77;21427;-66
2022/07/22 04:11:26;;;;;;;13.98;4.17;;;;;;;16.86;87.26;98117.52;1861672;77;21443;-67
2022/07/22 04:13:53;;;;;;;12.28;4.12;;;;;;;16.95;87.20;98112.84;1861584;77;20891;-66
2022/07/22 04:16:20;;;;;;;15.83;3.90;;;;;;;17.01;87.09;98109.61;1856522;77;21429;-67
2022/07/22 04:18:52;;;;;;;8.65;3.72;;;;;;;17.09;87.13;98106.61;1835221;77;21345;-67
2022/07/22 04:21:20;;;;;;;18.62;4.35;;;;;;;17.20;87.35;98103.73;1861343;77;21235;-66
2022/07/22 04:23:51;;;;;;;7.30;3.67;;;;;;;17.35;87.92;98106.42;1861553;77;20860;-66
2022/07/22 04:26:23;;;;;;;13.32;3.90;;;;;;;17.49;87.96;98109.09;1861494;77;21302;-66
2022/07/22 04:28:50;;;;;;;14.87;3.87;;;;;;;17.63;87.93;98110.19;1861472;77;20958;-68
2022/07/22 04:31:17;;;;;;;16.42;4.33;;;;;;;17.73;87.71;98095.64;1861484;77;20879;-66
2022/07/22 04:33:46;;;;;;;14.00;4.70;;;;;;;17.83;87.50;98099.09;1856600;77;21879;-66
2022/07/22 04:36:14;;;;;;;14.58;4.55;;;;;;;17.92;87.31;98097.08;1861508;77;21335;-67
2022/07/22 04:38:41;;;;;;;14.90;4.47;;;;;;;18.03;87.23;98104.99;1861685;77;21366;-66
2022/07/22 04:41:10;;;;;;;14.55;4.62;;;;;;;18.13;87.22;98103.22;1861456;77;20887;-66
2022/07/22 04:43:36;;;;;;;12.93;4.22;;;;;;;18.24;87.22;98111.94;1861598;77;20896;-66
2022/07/22 04:46:03;;;;;;;13.68;4.47;;;;;;;18.34;87.09;98116.13;1861435;77;21249;-67
2022/07/22 04:48:33;;;;;;;16.07;4.08;;;;;;;18.44;86.98;98116.46;1861850;77;20840;-66
2022/07/22 04:51:01;;;;;;;10.20;4.40;;;;;;;18.54;86.79;98117.97;1861558;77;20927;-66
2022/07/22 04:53:28;;;;;;;13.65;4.00;;;;;;;18.64;86.57;98114.81;1856192;77;20923;-66
2022/07/22 04:55:55;;;;;;;15.25;4.55;;;;;;;18.74;86.48;98114.92;1861492;77;20883;-66
2022/07/22 04:58:21;;;;;;;14.70;5.28;;;;;;;18.84;86.32;98119.31;1861468;77;21120;-66
2022/07/22 05:00:48;;;;;;;11.30;4.78;;;;;;;18.93;86.09;98120.01;1861491;77;21445;-65
2022/07/22 05:03:15;;;;;;;10.55;4.80;;;;;;;19.01;85.96;98120.43;1841867;77;21477;-66
2022/07/22 05:05:43;;;;;;;7.97;4.85;;;;;;;19.10;85.67;98118.37;1848744;77;20915;-66
2022/07/22 05:08:10;;;;;;;8.20;4.45;;;;;;;19.19;85.58;98125.05;1849883;77;20929;-66
2022/07/22 05:10:38;;;;;;;10.13;4.62;;;;;;;19.28;85.33;98122.19;1833411;77;21061;-67
2022/07/22 05:13:06;;;;;;;9.90;4.22;;;;;;;19.37;85.20;98117.44;1836527;77;21486;-67
2022/07/22 05:15:33;;;;;;;10.18;4.37;;;;;;;19.45;84.91;98113.81;1847129;77;20825;-67
2022/07/22 05:18:02;;;;;;;13.60;4.45;;;;;;;19.53;84.79;98115.02;1835280;77;20973;-67
2022/07/22 05:20:32;;;;;;;11.75;4.35;;;;;;;19.62;84.60;98120.29;1849166;77;20872;-67
2022/07/22 05:22:59;;;;;;;7.25;4.08;;;;;;;19.69;84.20;98118.56;1838299;77;21112;-67
2022/07/22 05:25:27;;;;;;;12.05;4.03;;;;;;;19.76;83.79;98116.05;1849250;77;20904;-67
2022/07/22 05:27:55;;;;;;;9.88;4.20;;;;;;;19.86;83.57;98126.98;1842060;77;20888;-67
2022/07/22 05:30:28;;;;;;;10.05;4.33;;;;;;;19.94;83.16;98119.26;1835808;77;20908;-68
2022/07/22 05:32:54;;;;;;;13.30;4.70;;;;;;;20.01;82.63;98114.01;1849300;77;20976;-67
2022/07/22 05:35:29;;;;;;;9.45;4.17;;;;;;;20.10;82.16;98120.63;1833961;77;22134;-67
2022/07/22 05:37:57;;;;;;;12.00;4.17;;;;;;;20.16;81.72;98122.73;1834050;77;20927;-67
2022/07/22 05:40:24;;;;;;;7.97;4.10;;;;;;;20.23;81.27;98123.55;1839506;77;20872;-66
2022/07/22 05:42:50;;;;;;;12.70;4.17;;;;;;;20.30;80.91;98121.77;1837047;77;20845;-67
2022/07/22 05:45:17;;;;;;;12.90;4.30;;;;;;;20.38;80.58;98118.11;1838666;77;20884;-65
2022/07/22 05:47:44;;;;;;;8.80;3.80;;;;;;;20.48;80.12;98119.51;1839598;77;21176;-65
2022/07/22 05:50:10;;;;;;;15.03;4.03;;;;;;;20.58;79.76;98125.00;1847281;77;20857;-64
2022/07/22 05:52:38;;;;;;;10.18;4.20;;;;;;;20.66;79.21;98126.73;1828951;77;20948;-66
2022/07/22 05:55:07;;;;;;;6.70;3.80;;;;;;;20.75;78.91;98124.64;1840728;77;21036;-64
2022/07/22 05:57:33;;;;;;;8.13;4.35;;;;;;;20.82;78.66;98120.72;1776989;80;20949;-62
2022/07/22 06:00:04;;;;;;;9.40;4.03;;;;;;;20.86;77.67;98116.94;1802970;79;21111;-59
2022/07/22 06:02:32;;;;;;;8.53;4.15;;;;;;;20.96;77.18;98123.77;1773639;80;20920;-66
2022/07/22 06:05:00;;;;;;;10.90;3.92;;;;;;;21.04;76.64;98117.33;1791281;79;20971;-66
2022/07/22 06:07:27;;;;;;;5.75;3.77;;;;;;;21.12;76.17;98117.74;1786526;80;20959;-66
2022/07/22 06:09:55;;;;;;;8.83;3.85;;;;;;;21.20;76.11;98122.18;1784563;80;21104;-66
2022/07/22 06:12:23;;;;;;;11.33;4.05;;;;;;;21.28;75.13;98119.84;1778653;80;21118;-66
2022/07/22 06:14:50;;;;;;;8.75;4.85;;;;;;;21.36;74.71;98115.34;1848366;77;20985;-66
2022/07/22 06:17:17;;;;;;;9.03;4.80;;;;;;;21.42;74.64;98122.87;1777071;80;20999;-64
2022/07/22 06:19:45;;;;;;;6.47;4.22;;;;;;;21.48;74.45;98125.51;1808351;79;20908;-62
2022/07/22 06:22:12;;;;;;;12.63;4.72;;;;;;;21.54;74.15;98127.39;1776944;80;20957;-61
2022/07/22 06:24:39;;;;;;;11.55;4.58;;;;;;;21.60;74.10;98113.11;1804465;79;21164;-66
2022/07/22 06:27:06;;;;;;;9.98;5.08;;;;;;;21.67;74.02;98115.98;1768891;80;20919;-64
2022/07/22 06:29:33;;;;;;;9.53;4.12;;;;;;;21.74;73.68;98117.48;1746576;80;21307;-63
2022/07/22 06:32:00;;;;;;;5.92;2.77;;;;;;;21.85;73.40;98121.81;1760780;80;21361;-56
2022/07/22 06:34:29;;;;;;;4.47;2.70;;;;;;;21.91;69.60;98122.30;1758284;80;20915;-65
2022/07/22 06:37:00;;;;;;;6.35;3.20;;;;;;;21.95;68.04;98118.48;1797335;77;21453;-64
2022/07/22 06:39:27;;;;;;;7.87;3.00;;;;;;;22.02;67.66;98123.30;1786920;79;20971;-66
2022/07/22 06:42:02;;;;;;;8.33;3.67;;;;;;;22.10;67.90;98127.72;1786609;78;21615;-63
2022/07/22 06:44:46;;;;;;;6.95;3.58;;;;;;;22.17;67.28;98119.67;1805924;77;21146;-64
2022/07/22 06:47:21;;;;;;;8.25;3.50;;;;;;;22.24;67.43;98123.89;1809943;77;20990;-66
2022/07/22 06:49:47;;;;;;;11.18;3.65;;;;;;;22.29;67.03;98131.78;1802775;78;21304;-65
2022/07/22 06:52:14;;;;;;;11.80;3.90;;;;;;;22.32;67.22;98131.06;1742326;80;21393;-64
2022/07/22 06:54:41;;;;;;;7.62;3.15;;;;;;;22.35;67.78;98128.97;1813210;77;21045;-63
2022/07/22 06:57:08;;;;;;;4.83;2.95;;;;;;;22.37;66.31;98127.46;1797879;77;20992;-65
2022/07/22 06:59:35;;;;;;;7.35;3.62;;;;;;;22.42;66.43;98134.55;1806427;77;21019;-62
2022/07/22 07:02:03;;;;;;;8.25;3.25;;;;;;;22.45;67.32;98125.62;1760287;80;21097;-65
2022/07/22 07:04:30;;;;;;;5.92;3.10;;;;;;;22.53;66.70;98127.33;1757652;80;21076;-57
2022/07/22 07:06:57;;;;;;;10.85;3.45;;;;;;;22.62;65.51;98133.35;1756968;79;20932;-60
2022/07/22 07:09:30;;;;;;;5.20;2.87;;;;;;;22.66;65.54;98132.83;1734882;81;21584;-64
2022/07/22 07:12:00;;;;;;;6.17;3.00;;;;;;;22.75;65.12;98138.81;1741664;80;21544;-62
2022/07/22 07:14:29;;;;;;;4.60;2.45;;;;;;;22.84;62.69;98135.28;1732835;79;21978;-60
2022/07/22 07:16:55;;;;;;;10.63;3.42;;;;;;;22.91;62.67;98132.66;1813397;77;21063;-60
2022/07/22 07:19:22;;;;;;;5.58;3.27;;;;;;;22.97;62.96;98131.74;1762054;79;21001;-60
2022/07/22 07:21:49;;;;;;;5.87;2.87;;;;;;;23.06;62.89;98139.89;1813019;77;21059;-62
2022/07/22 07:24:19;;;;;;;7.72;3.02;;;;;;;23.08;63.87;98143.03;1801558;77;21070;-60
2022/07/22 07:26:45;;;;;;;6.05;3.67;;;;;;;23.18;63.98;98143.55;1807687;77;21487;-61
2022/07/22 07:29:12;;;;;;;10.00;2.90;;;;;;;23.27;64.84;98137.27;1818306;77;21545;-61
2022/07/22 07:31:44;;;;;;;8.28;3.37;;;;;;;23.37;63.84;98138.00;1801798;77;21017;-62
2022/07/22 07:34:13;;;;;;;4.97;3.02;;;;;;;23.43;62.95;98137.90;1814172;77;21089;-64
2022/07/22 07:36:40;;;;;;;8.93;3.10;;;;;;;23.47;61.01;98135.42;1809684;77;21484;-61
2022/07/22 07:39:08;;;;;;;5.90;2.85;;;;;;;23.49;59.42;98144.03;1804103;77;21102;-61
2022/07/22 07:41:36;;;;;;;8.90;3.35;;;;;;;23.52;59.68;98145.23;1801472;77;20936;-62
2022/07/22 07:44:03;;;;;;;7.70;3.20;;;;;;;23.51;59.82;98145.81;1796578;77;21084;-62
2022/07/22 07:46:32;;;;;;;7.33;3.50;;;;;;;23.54;60.10;98146.45;1803092;78;20972;-63
2022/07/22 07:48:58;;;;;;;4.72;3.30;;;;;;;23.56;60.86;98144.13;1809858;77;20997;-65
2022/07/22 07:51:25;;;;;;;7.28;3.40;;;;;;;23.60;60.24;98144.19;1795504;77;22393;-61
2022/07/22 07:53:53;;;;;;;6.53;3.65;;;;;;;23.63;61.11;98144.22;1806307;77;20963;-62
2022/07/22 07:56:27;;;;;;;6.60;3.33;;;;;;;23.73;61.54;98144.14;1811601;77;21066;-65
2022/07/22 07:59:00;;;;;;;8.25;3.42;;;;;;;23.84;61.00;98147.78;1814028;77;21011;-65
2022/07/22 08:01:38;;;;;;;10.60;3.60;;;;;;;23.96;60.65;98142.63;1811421;77;20984;-63
2022/07/22 08:04:09;;;;;;;7.67;3.30;;;;;;;24.04;59.40;98144.30;1792226;78;21116;-64
2022/07/22 08:06:37;;;;;;;5.12;3.27;;;;;;;24.13;59.86;98148.34;1805401;77;21069;-66
2022/07/22 08:09:04;;;;;;;4.83;3.30;;;;;;;24.18;58.59;98143.91;1797074;77;21033;-63
2022/07/22 08:11:32;;;;;;;7.22;3.77;;;;;;;24.24;58.94;98138.28;1801870;77;21086;-65
2022/07/22 08:14:10;;;;;;;5.80;3.08;;;;;;;24.34;58.62;98141.72;1805992;77;21112;-64
2022/07/22 08:16:42;;;;;;;5.55;2.87;;;;;;;24.42;58.71;98143.34;1798193;77;20993;-63
2022/07/22 08:19:09;;;;;;;4.40;3.08;;;;;;;24.48;58.15;98145.95;1764650;79;21568;-63
2022/07/22 08:21:37;;;;;;;6.28;3.47;;;;;;;24.54;57.67;98139.56;1747379;80;21031;-64
2022/07/22 08:24:22;;;;;;;4.72;2.87;;;;;;;24.56;56.87;98146.02;1744192;81;21119;-63
2022/07/22 08:26:49;;;;;;;4.80;3.17;;;;;;;24.56;56.99;98148.17;1746849;80;21063;-64
2022/07/22 08:29:16;;;;;;;7.58;2.87;;;;;;;24.62;57.69;98154.08;1735226;81;22002;-63
2022/07/22 08:31:45;;;;;;;6.03;2.67;;;;;;;24.70;57.00;98141.45;1747615;80;20937;-66
2022/07/22 08:34:13;;;;;;;7.40;2.67;;;;;;;24.79;57.23;98143.89;1808478;77;21043;-60
2022/07/22 08:36:40;;;;;;;6.97;3.10;;;;;;;24.89;56.31;98143.19;1807736;77;21541;-65
2022/07/22 08:39:07;;;;;;;3.75;2.72;;;;;;;24.99;57.13;98145.23;1803231;77;21570;-65
2022/07/22 08:41:37;;;;;;;8.25;2.92;;;;;;;25.10;55.89;98135.12;1808005;77;21295;-65
2022/07/22 08:44:04;;;;;;;5.47;2.65;;;;;;;25.16;55.25;98133.58;1807260;77;21080;-63
2022/07/22 08:46:31;;;;;;;8.75;3.00;;;;;;;25.20;54.77;98137.14;1807755;77;21071;-65
2022/07/22 08:49:17;;;;;;;4.05;2.87;;;;;;;25.25;56.47;98140.87;1733041;81;20964;-67
2022/07/22 08:51:46;;;;;;;5.67;3.10;;;;;;;25.35;56.10;98140.16;1775746;77;21009;-65
2022/07/22 08:54:14;;;;;;;6.75;3.20;;;;;;;25.44;55.87;98140.62;1757714;79;21128;-65
2022/07/22 08:56:50;;;;;;;4.95;2.90;;;;;;;25.58;55.54;98140.69;1802204;77;21029;-68
2022/07/22 08:59:17;;;;;;;6.67;3.10;;;;;;;25.58;55.54;98140.69;1809258;77;21448;-66
2022/07/22 09:02:05;;;;;;;5.30;3.05;;;;;;;25.80;53.30;98142.94;1814097;77;20964;-65
2022/07/22 09:05:01;;;;;;;4.58;2.58;;;;;;;25.80;53.30;98142.94;1812722;77;21006;-60
2022/07/22 09:07:35;;;;;;;5.25;2.70;;;;;;;25.86;54.70;98146.11;1808557;78;21101;-64
2022/07/22 09:10:16;;;;;;;4.78;2.60;;;;;;;25.94;52.20;98143.56;1811850;77;21058;-63
